createdAt,value
2022-10-13T00:03:58.100Z,76.40
2022-10-13T00:09:02.078Z,75.90
2022-10-13T00:14:06.275Z,67.30
2022-10-13T00:19:14.861Z,64.10
2022-10-13T00:24:20.035Z,58.70
2022-10-13T00:29:24.328Z,58.70
2022-10-13T00:34:28.580Z,63.50
2022-10-13T00:39:33.382Z,67.90
2022-10-13T00:45:02.007Z,58.40
2022-10-13T00:50:10.643Z,50.90
2022-10-13T00:55:18.950Z,53.50
2022-10-13T01:00:25.446Z,39.00
2022-10-13T01:05:30.193Z,48.70
2022-10-13T01:11:09.382Z,57.40
2022-10-13T01:16:24.662Z,53.90
2022-10-13T01:21:30.833Z,48.70
2022-10-13T01:27:10.541Z,52.60
2022-10-13T01:32:37.828Z,45.90
2022-10-13T01:38:03.202Z,46.60
2022-10-13T01:43:26.537Z,45.40
2022-10-13T01:48:30.478Z,35.00
2022-10-13T01:53:36.220Z,44.90
2022-10-13T01:58:41.065Z,32.80
2022-10-13T02:04:02.231Z,48.00
2022-10-13T02:09:46.798Z,36.30
2022-10-13T02:14:53.526Z,39.20
2022-10-13T02:19:59.142Z,35.70
2022-10-13T02:25:04.750Z,34.50
2022-10-13T02:30:10.674Z,38.20
2022-10-13T02:35:14.950Z,33.70
2022-10-13T02:40:18.999Z,38.10
2022-10-13T02:45:24.439Z,31.50
2022-10-13T02:50:30.127Z,35.40
2022-10-13T02:55:34.418Z,34.00
2022-10-13T03:00:40.145Z,34.80
2022-10-13T03:05:44.439Z,30.70
2022-10-13T03:10:49.154Z,30.30
2022-10-13T03:15:55.302Z,32.90
2022-10-13T03:21:07.487Z,30.00
2022-10-13T03:26:12.173Z,29.10
2022-10-13T03:31:16.072Z,31.00
2022-10-13T03:36:19.831Z,27.80
2022-10-13T03:41:23.548Z,24.90
2022-10-13T03:46:30.096Z,32.00
2022-10-13T03:51:34.594Z,24.20
2022-10-13T03:56:41.290Z,23.90
2022-10-13T04:01:46.369Z,23.20
2022-10-13T04:06:51.044Z,23.60
2022-10-13T04:11:55.417Z,28.70
2022-10-13T04:17:00.131Z,30.60
2022-10-13T04:22:04.422Z,23.60
2022-10-13T04:27:09.136Z,25.50
2022-10-13T04:32:13.040Z,35.20
2022-10-13T04:37:18.074Z,30.90
2022-10-13T04:42:21.716Z,28.00
2022-10-13T04:47:25.345Z,28.00
2022-10-13T04:52:28.691Z,32.40
2022-10-13T04:57:32.690Z,34.50
2022-10-13T05:02:36.797Z,28.90
2022-10-13T05:07:39.939Z,20.20
2022-10-13T05:12:43.384Z,28.80
2022-10-13T05:17:47.705Z,26.60
2022-10-13T05:22:51.994Z,20.00
2022-10-13T05:27:56.282Z,62.00
2022-10-13T05:33:00.471Z,16.60
2022-10-13T05:38:04.886Z,27.90
2022-10-13T05:43:09.516Z,23.70
2022-10-13T05:48:14.348Z,33.50
2022-10-13T05:53:19.143Z,27.20
2022-10-13T05:58:24.505Z,29.70
2022-10-13T06:03:31.808Z,25.00
2022-10-13T06:08:36.280Z,55.00
2022-10-13T06:13:40.303Z,35.30
2022-10-13T06:18:43.755Z,26.90
2022-10-13T06:23:48.097Z,33.00
2022-10-13T06:28:56.946Z,37.30
2022-10-13T06:34:06.335Z,36.40
2022-10-13T06:39:10.584Z,29.60
2022-10-13T06:44:15.527Z,34.90
2022-10-13T06:49:24.398Z,30.70
2022-10-13T06:54:28.298Z,31.90
2022-10-13T06:59:31.456Z,22.20
2022-10-13T07:04:34.718Z,27.30
2022-10-13T07:09:38.747Z,19.90
2022-10-13T07:14:43.882Z,24.30
2022-10-13T07:19:49.116Z,20.90
2022-10-13T07:24:52.429Z,18.60
2022-10-13T07:29:56.857Z,13.00
2022-10-13T07:35:01.096Z,20.50
2022-10-13T07:40:06.564Z,15.80
2022-10-13T07:45:11.073Z,14.60
2022-10-13T07:50:16.076Z,17.90
2022-10-13T07:55:20.277Z,12.60
2022-10-13T08:00:24.542Z,18.10
2022-10-13T08:05:29.717Z,15.00
2022-10-13T08:10:34.201Z,13.90
2022-10-13T08:15:45.279Z,14.80
2022-10-13T08:20:49.132Z,13.70
2022-10-13T08:25:53.696Z,10.20
2022-10-13T08:30:58.270Z,14.60
2022-10-13T08:36:01.906Z,8.20
2022-10-13T08:47:15.627Z,18.20
2022-10-13T08:52:23.354Z,10.40
2022-10-13T08:57:26.742Z,11.00
2022-10-13T09:02:31.876Z,15.00
2022-10-13T09:07:38.324Z,7.10
2022-10-13T09:12:42.092Z,11.90
2022-10-13T09:17:46.208Z,8.50
2022-10-13T09:23:03.922Z,11.70
2022-10-13T09:28:18.442Z,8.40
2022-10-13T09:33:25.524Z,7.80
2022-10-13T09:43:35.520Z,6.10
2022-10-13T09:48:43.402Z,5.90
2022-10-13T09:53:48.107Z,11.40
2022-10-13T09:58:59.202Z,8.90
2022-10-13T10:04:11.774Z,10.20
2022-10-13T10:09:35.103Z,5.50
2022-10-13T10:14:40.076Z,9.30
2022-10-13T10:19:52.710Z,5.60
2022-10-13T10:25:13.468Z,4.70
2022-10-13T10:30:20.478Z,4.00
2022-10-13T10:35:27.071Z,11.30
2022-10-13T10:40:45.926Z,5.80
2022-10-13T10:45:50.178Z,9.10
2022-10-13T10:50:54.495Z,15.30
2022-10-13T10:56:05.719Z,6.40
2022-10-13T11:01:12.964Z,7.30
2022-10-13T11:06:16.769Z,6.50
2022-10-13T11:11:26.750Z,4.90
2022-10-13T11:16:41.081Z,9.00
2022-10-13T11:22:00.096Z,22.90
2022-10-13T11:27:12.081Z,9.10
2022-10-13T11:32:36.806Z,6.00
2022-10-13T11:38:07.684Z,5.90
2022-10-13T11:43:20.295Z,4.50
2022-10-13T11:48:51.115Z,10.10
2022-10-13T11:54:24.127Z,9.70
2022-10-13T11:59:35.353Z,8.80
2022-10-13T12:04:46.277Z,5.30
2022-10-13T12:09:54.932Z,6.40
2022-10-13T12:15:02.607Z,4.70
2022-10-13T12:20:31.710Z,6.10
2022-10-13T12:25:37.208Z,3.70
2022-10-13T12:30:45.409Z,7.80
2022-10-13T12:35:48.952Z,6.90
2022-10-13T12:40:55.303Z,8.00
2022-10-13T12:45:58.857Z,11.60
2022-10-13T12:51:23.749Z,6.40
2022-10-13T12:56:32.252Z,10.10
2022-10-13T13:01:36.530Z,14.50
2022-10-13T13:06:55.486Z,5.90
2022-10-13T13:12:11.829Z,6.90
2022-10-13T13:17:52.973Z,5.20
2022-10-13T13:22:51.704Z,8.40
2022-10-13T13:27:55.978Z,14.80
2022-10-13T13:33:00.307Z,5.70
2022-10-13T13:38:05.755Z,9.30
2022-10-13T13:43:10.527Z,8.50
2022-10-13T13:48:15.445Z,8.70
2022-10-13T13:53:20.100Z,7.80
2022-10-13T13:58:24.555Z,8.80
2022-10-13T14:03:29.646Z,9.40
2022-10-13T14:08:36.194Z,5.90
2022-10-13T14:18:45.380Z,12.30
2022-10-13T14:23:49.356Z,5.90
2022-10-13T14:28:54.658Z,6.20
2022-10-13T14:33:59.035Z,6.10
2022-10-13T14:39:02.493Z,10.50
2022-10-13T14:44:07.564Z,10.50
2022-10-13T14:49:12.478Z,14.50
2022-10-13T14:54:17.059Z,17.60
2022-10-13T14:59:21.299Z,6.90
2022-10-13T15:04:25.653Z,8.10
2022-10-13T15:09:44.864Z,10.00
2022-10-13T15:14:54.596Z,11.50
2022-10-13T15:19:59.024Z,18.40
2022-10-13T15:25:04.954Z,13.40
2022-10-13T15:30:10.517Z,16.10
2022-10-13T15:35:14.776Z,14.70
2022-10-13T15:40:19.054Z,15.60
2022-10-13T15:45:25.133Z,9.00
2022-10-13T15:50:31.625Z,12.50
2022-10-13T15:55:36.215Z,9.40
2022-10-13T16:00:41.468Z,11.30
2022-10-13T16:05:53.384Z,11.80
2022-10-13T16:10:57.396Z,13.10
2022-10-13T16:16:01.939Z,12.30
2022-10-13T16:21:18.312Z,11.10
2022-10-13T16:26:22.820Z,19.00
2022-10-13T16:31:27.049Z,12.20
2022-10-13T16:36:31.620Z,10.40
2022-10-13T16:41:35.069Z,11.40
2022-10-13T16:46:38.957Z,13.70
2022-10-13T16:51:43.131Z,14.10
2022-10-13T16:56:47.522Z,18.90
2022-10-13T17:01:53.846Z,28.50
2022-10-13T17:07:00.085Z,33.40
2022-10-13T17:12:04.529Z,19.40
2022-10-13T17:17:08.827Z,16.00
2022-10-13T17:22:13.046Z,21.40
2022-10-13T17:27:17.644Z,18.20
2022-10-13T17:32:22.706Z,17.20
2022-10-13T17:37:27.671Z,17.40
2022-10-13T17:42:32.072Z,23.20
2022-10-13T17:47:36.714Z,23.60
2022-10-13T17:52:41.853Z,26.60
2022-10-13T17:57:46.780Z,20.50
2022-10-13T18:02:51.403Z,19.90
2022-10-13T18:07:58.478Z,21.00
2022-10-13T18:13:02.176Z,28.20
2022-10-13T18:18:06.673Z,27.60
2022-10-13T18:23:10.563Z,26.70
2022-10-13T18:28:14.646Z,34.70
2022-10-13T18:33:19.139Z,27.90
2022-10-13T18:38:24.784Z,29.40
2022-10-13T18:43:31.532Z,26.80
2022-10-13T18:48:36.328Z,36.50
2022-10-13T18:53:43.694Z,42.20
2022-10-13T18:58:48.191Z,40.00
2022-10-13T19:03:54.319Z,37.90
2022-10-13T19:09:10.222Z,40.40
2022-10-13T19:14:15.929Z,45.90
2022-10-13T19:19:21.347Z,46.40
2022-10-13T19:24:27.993Z,33.90
2022-10-13T19:29:34.035Z,50.00
2022-10-13T19:34:40.959Z,37.40
2022-10-13T19:39:53.195Z,48.90
2022-10-13T19:45:06.129Z,42.30
2022-10-13T19:50:12.589Z,42.00
2022-10-13T19:55:18.778Z,40.60
2022-10-13T20:00:23.509Z,49.20
2022-10-13T20:05:27.708Z,42.50
2022-10-13T20:10:35.116Z,37.70
2022-10-13T20:15:41.621Z,35.00
2022-10-13T20:20:46.065Z,36.00
2022-10-13T20:25:50.102Z,40.50
2022-10-13T20:30:54.257Z,44.50
2022-10-13T20:36:13.185Z,49.40
2022-10-13T20:41:20.972Z,39.00
2022-10-13T20:46:26.659Z,39.00
2022-10-13T20:51:30.824Z,48.50
2022-10-13T20:56:34.879Z,36.20
2022-10-13T21:01:41.372Z,39.10
2022-10-13T21:06:46.702Z,30.90
2022-10-13T21:11:51.546Z,40.90
2022-10-13T21:16:55.686Z,45.60
2022-10-13T21:21:59.980Z,52.60
2022-10-13T21:27:04.158Z,42.10
2022-10-13T21:32:08.264Z,42.70
2022-10-13T21:37:12.197Z,50.20
2022-10-13T21:42:16.750Z,34.40
2022-10-13T21:47:22.440Z,32.50
2022-10-13T21:52:28.322Z,38.30
2022-10-13T21:57:32.106Z,37.00
2022-10-13T22:02:36.333Z,29.50
2022-10-13T22:07:40.869Z,38.70
2022-10-13T22:12:45.295Z,42.80
2022-10-13T22:17:49.045Z,39.40
2022-10-13T22:22:53.571Z,36.60
2022-10-13T22:27:57.909Z,39.70
2022-10-13T22:33:02.208Z,45.60
2022-10-13T22:38:05.432Z,41.80
2022-10-13T22:43:09.541Z,40.90
2022-10-13T22:48:13.883Z,30.60
2022-10-13T22:53:18.673Z,36.40
2022-10-13T22:58:23.583Z,37.60
2022-10-13T23:03:27.613Z,36.90
2022-10-13T23:08:31.966Z,35.90
2022-10-13T23:13:36.479Z,41.70
2022-10-13T23:18:41.049Z,44.80
2022-10-13T23:23:45.779Z,29.60
2022-10-13T23:28:50.320Z,47.00
2022-10-13T23:33:54.909Z,41.50
2022-10-13T23:39:05.087Z,31.10
2022-10-13T23:44:10.355Z,33.20
2022-10-13T23:49:15.397Z,40.40
2022-10-13T23:54:20.091Z,35.00
2022-10-13T23:59:24.135Z,40.90
